Time;durP1;ratioP1;P1;durP2;ratioP2;P2;SDS_P1;SDS_P2;PMS_P1;PMS_P2;Temp;Humidity;BMP_temperature;BMP_pressure;BME280_temperature;BME280_humidity;BME280_pressure;Samples;Min_cycle;Max_cycle;Signal;HPM_P1;HPM_P2
2022/09/13 00:00:48;;;;;;;;;;;15.90;94.70;;;;;;5071231;28;20019;-72
2022/09/13 00:03:15;;;;;;;;;;;15.90;94.70;;;;;;5071422;28;19912;-70
2022/09/13 00:05:42;;;;;;;;;;;16.00;95.20;;;;;;5071237;28;19908;-70
2022/09/13 00:08:09;;;;;;;;;;;16.10;94.90;;;;;;5068844;28;19931;-72
2022/09/13 00:10:37;;;;;;;;;;;16.20;94.60;;;;;;5071920;28;20015;-74
2022/09/13 00:13:05;;;;;;;;;;;16.20;94.00;;;;;;5072254;28;20042;-73
2022/09/13 00:15:31;;;;;;;;;;;16.10;93.90;;;;;;5052318;28;19909;-72
2022/09/13 00:17:58;;;;;;;;;;;16.30;94.40;;;;;;5050882;28;19908;-72
2022/09/13 00:20:25;;;;;;;;;;;16.40;93.90;;;;;;5065665;28;19917;-73
2022/09/13 00:22:52;;;;;;;;;;;16.40;93.60;;;;;;5071858;28;19912;-74
2022/09/13 00:25:18;;;;;;;;;;;16.60;93.10;;;;;;5071315;28;19947;-78
2022/09/13 00:27:45;;;;;;;;;;;16.70;92.40;;;;;;5070650;28;19908;-76
2022/09/13 00:30:12;;;;;;;;;;;16.90;92.30;;;;;;5071686;28;19912;-74
2022/09/13 00:32:39;;;;;;;;;;;17.10;92.70;;;;;;5071157;28;20337;-75
2022/09/13 00:35:06;;;;;;;;;;;17.20;92.40;;;;;;5071018;28;19928;-75
2022/09/13 00:37:34;;;;;;;;;;;17.20;92.00;;;;;;5070618;28;19908;-78
2022/09/13 00:40:01;;;;;;;;;;;17.30;92.00;;;;;;5064848;28;20046;-78
2022/09/13 00:42:31;;;;;;;;;;;17.20;92.10;;;;;;5062142;28;20030;-75
2022/09/13 00:44:59;;;;;;;;;;;17.20;91.80;;;;;;5060889;28;20603;-73
2022/09/13 00:47:40;;;;;;;;;;;17.20;91.40;;;;;;5070833;28;19909;-75
2022/09/13 00:50:07;;;;;;;;;;;17.00;91.80;;;;;;5071261;28;19955;-73
2022/09/13 00:52:35;;;;;;;;;;;16.80;91.80;;;;;;5071785;28;20434;-74
2022/09/13 00:55:04;;;;;;;;;;;16.70;91.80;;;;;;5071293;28;19920;-73
2022/09/13 00:57:32;;;;;;;;;;;16.60;91.90;;;;;;5071153;28;19962;-74
2022/09/13 00:59:59;;;;;;;;;;;16.70;92.00;;;;;;5070031;28;19921;-75
2022/09/13 01:02:27;;;;;;;;;;;16.60;92.20;;;;;;5071440;28;20075;-74
2022/09/13 01:04:54;;;;;;;;;;;16.60;91.60;;;;;;5070450;28;19916;-75
2022/09/13 01:07:21;;;;;;;;;;;16.60;91.60;;;;;;5070869;28;19912;-74
2022/09/13 01:09:50;;;;;;;;;;;16.50;92.00;;;;;;5071070;28;19927;-73
2022/09/13 01:12:22;;;;;;;;;;;16.50;92.30;;;;;;5071436;28;20319;-74
2022/09/13 01:14:49;;;;;;;;;;;16.50;92.30;;;;;;5074726;28;19913;-74
2022/09/13 01:17:15;;;;;;;;;;;16.60;92.10;;;;;;5074554;28;19918;-74
2022/09/13 01:19:42;;;;;;;;;;;16.60;91.90;;;;;;5074554;28;20007;-72
2022/09/13 01:22:24;;;;;;;;;;;16.50;92.10;;;;;;5074871;28;20330;-72
2022/09/13 01:25:18;;;;;;;;;;;16.60;92.00;;;;;;5064759;28;19935;-73
2022/09/13 01:28:03;;;;;;;;;;;16.50;92.10;;;;;;5074660;28;19908;-75
2022/09/13 01:30:35;;;;;;;;;;;16.60;92.20;;;;;;5075061;28;20387;-77
2022/09/13 01:33:11;;;;;;;;;;;16.50;92.00;;;;;;5075266;28;19920;-77
2022/09/13 01:36:03;;;;;;;;;;;16.60;91.80;;;;;;5074611;28;19908;-73
2022/09/13 01:38:42;;;;;;;;;;;16.80;91.00;;;;;;5058044;28;19970;-74
2022/09/13 01:41:26;;;;;;;;;;;16.90;91.20;;;;;;5074203;28;19966;-74
2022/09/13 01:44:02;;;;;;;;;;;17.10;90.40;;;;;;5074505;28;20076;-77
2022/09/13 01:46:46;;;;;;;;;;;17.20;90.10;;;;;;5073787;28;20284;-77
2022/09/13 01:49:22;;;;;;;;;;;17.40;89.50;;;;;;5074669;28;19916;-74
2022/09/13 01:51:50;;;;;;;;;;;17.60;89.60;;;;;;5074116;28;19917;-78
2022/09/13 01:54:19;;;;;;;;;;;17.60;88.70;;;;;;5074502;28;19912;-74
2022/09/13 01:56:55;;;;;;;;;;;17.60;88.50;;;;;;5073960;28;19913;-73
2022/09/13 01:59:39;;;;;;;;;;;17.80;88.30;;;;;;5074237;28;19931;-73
2022/09/13 02:02:30;;;;;;;;;;;17.80;88.00;;;;;;5074235;28;19921;-74
2022/09/13 02:05:03;;;;;;;;;;;17.80;86.80;;;;;;5068105;28;19989;-74
2022/09/13 02:07:36;;;;;;;;;;;18.20;87.10;;;;;;5074255;28;19915;-74
2022/09/13 02:10:06;;;;;;;;;;;18.40;86.60;;;;;;5075118;28;19913;-74
2022/09/13 02:12:35;;;;;;;;;;;18.70;84.20;;;;;;5074297;28;19916;-76
2022/09/13 02:15:06;;;;;;;;;;;18.70;85.30;;;;;;5074560;28;19916;-73
2022/09/13 02:17:44;;;;;;;;;;;18.80;83.20;;;;;;5074038;28;20396;-73
2022/09/13 02:20:17;;;;;;;;;;;18.80;82.70;;;;;;5074105;28;20004;-74
2022/09/13 02:22:45;;;;;;;;;;;18.70;82.10;;;;;;5074069;28;19958;-74
2022/09/13 02:25:14;;;;;;;;;;;18.70;82.70;;;;;;5072819;28;19908;-78
2022/09/13 02:27:42;;;;;;;;;;;18.70;82.10;;;;;;5073557;28;20380;-73
2022/09/13 02:30:10;;;;;;;;;;;18.90;82.90;;;;;;5074014;28;20313;-75
2022/09/13 02:32:39;;;;;;;;;;;19.10;82.30;;;;;;5070779;28;19924;-74
2022/09/13 02:35:10;;;;;;;;;;;19.00;83.10;;;;;;5065880;28;20011;-73
2022/09/13 02:37:38;;;;;;;;;;;19.20;82.70;;;;;;5072931;28;20359;-75
2022/09/13 02:40:11;;;;;;;;;;;19.50;82.30;;;;;;5073177;28;20389;-75
2022/09/13 02:42:40;;;;;;;;;;;19.70;81.10;;;;;;5073569;28;19983;-74
2022/09/13 02:45:07;;;;;;;;;;;20.30;79.70;;;;;;5072153;28;19915;-77
2022/09/13 02:47:41;;;;;;;;;;;20.30;79.10;;;;;;5066758;28;19958;-73
2022/09/13 02:50:10;;;;;;;;;;;20.10;80.10;;;;;;5060800;28;19913;-73
2022/09/13 02:52:53;;;;;;;;;;;20.20;78.70;;;;;;5071143;28;20016;-76
2022/09/13 02:55:42;;;;;;;;;;;20.70;78.50;;;;;;5071914;28;20003;-77
2022/09/13 02:58:29;;;;;;;;;;;21.40;77.30;;;;;;5072218;28;19991;-76
2022/09/13 03:00:56;;;;;;;;;;;21.50;76.40;;;;;;5073542;28;19921;-76
2022/09/13 03:03:23;;;;;;;;;;;21.50;75.70;;;;;;5072153;28;19912;-78
2022/09/13 03:05:50;;;;;;;;;;;21.80;75.40;;;;;;5072535;28;19958;-74
2022/09/13 03:08:17;;;;;;;;;;;21.90;75.50;;;;;;5070716;28;20258;-76
2022/09/13 03:10:47;;;;;;;;;;;21.60;75.80;;;;;;5071251;28;19920;-75
2022/09/13 03:13:34;;;;;;;;;;;21.60;75.30;;;;;;5071376;28;19912;-75
2022/09/13 03:16:28;;;;;;;;;;;21.80;75.60;;;;;;5071653;28;19912;-75
2022/09/13 03:19:00;;;;;;;;;;;22.10;74.80;;;;;;5069211;28;19912;-75
2022/09/13 03:21:45;;;;;;;;;;;22.70;74.50;;;;;;5071791;28;20002;-74
2022/09/13 03:24:12;;;;;;;;;;;23.00;71.50;;;;;;5072103;28;19916;-75
2022/09/13 03:26:58;;;;;;;;;;;23.30;70.30;;;;;;5072649;28;20026;-73
2022/09/13 03:29:24;;;;;;;;;;;23.70;70.20;;;;;;5072958;28;19954;-75
2022/09/13 03:31:54;;;;;;;;;;;23.70;69.10;;;;;;5072516;28;20318;-76
2022/09/13 03:34:23;;;;;;;;;;;23.30;71.80;;;;;;5072424;28;19917;-76
2022/09/13 03:36:50;;;;;;;;;;;22.80;71.90;;;;;;5072057;28;19908;-75
2022/09/13 03:39:22;;;;;;;;;;;22.20;71.70;;;;;;5072455;28;19912;-73
2022/09/13 03:41:51;;;;;;;;;;;21.70;73.50;;;;;;5072837;28;20371;-73
2022/09/13 03:44:19;;;;;;;;;;;21.50;73.70;;;;;;5071778;28;19912;-74
2022/09/13 03:46:48;;;;;;;;;;;21.10;74.60;;;;;;5072067;28;19912;-76
2022/09/13 03:49:16;;;;;;;;;;;20.80;75.80;;;;;;5072529;28;19915;-78
2022/09/13 03:51:47;;;;;;;;;;;21.10;75.10;;;;;;5072402;28;20015;-76
2022/09/13 03:54:20;;;;;;;;;;;21.60;74.40;;;;;;5072211;28;19991;-78
2022/09/13 03:57:04;;;;;;;;;;;21.90;73.10;;;;;;5071803;28;19912;-74
2022/09/13 03:59:31;;;;;;;;;;;21.90;72.40;;;;;;5072277;28;20273;-74
2022/09/13 04:01:58;;;;;;;;;;;21.80;72.70;;;;;;5072377;28;19915;-76
2022/09/13 04:04:25;;;;;;;;;;;21.50;73.30;;;;;;5071834;28;19909;-72
2022/09/13 04:06:53;;;;;;;;;;;21.30;74.00;;;;;;5071314;28;19909;-73
2022/09/13 04:09:19;;;;;;;;;;;21.40;73.80;;;;;;5071002;28;19913;-75
2022/09/13 04:11:46;;;;;;;;;;;21.70;73.70;;;;;;5072559;28;20377;-74
2022/09/13 04:14:14;;;;;;;;;;;22.00;73.10;;;;;;5072503;28;19916;-74
2022/09/13 04:16:42;;;;;;;;;;;22.00;72.30;;;;;;5071581;28;19948;-75
2022/09/13 04:19:09;;;;;;;;;;;21.80;71.70;;;;;;5072088;28;19912;-73
2022/09/13 04:21:37;;;;;;;;;;;21.50;72.00;;;;;;5071581;28;19923;-74
2022/09/13 04:24:03;;;;;;;;;;;21.50;72.70;;;;;;5072066;28;19909;-73
2022/09/13 04:26:30;;;;;;;;;;;21.30;72.30;;;;;;5071696;28;19908;-75
2022/09/13 04:28:56;;;;;;;;;;;21.80;72.70;;;;;;5071587;28;20364;-75
2022/09/13 04:31:23;;;;;;;;;;;22.70;69.80;;;;;;5070943;28;20276;-74
2022/09/13 04:33:50;;;;;;;;;;;23.30;68.40;;;;;;5071894;28;19909;-75
2022/09/13 04:36:17;;;;;;;;;;;23.60;67.80;;;;;;5070912;28;19915;-73
2022/09/13 04:38:46;;;;;;;;;;;23.70;68.70;;;;;;5071162;28;19919;-75
2022/09/13 04:41:12;;;;;;;;;;;23.50;66.30;;;;;;5071231;28;19912;-72
2022/09/13 04:43:39;;;;;;;;;;;23.50;68.20;;;;;;5052644;28;20332;-73
2022/09/13 04:46:05;;;;;;;;;;;23.70;67.20;;;;;;5071174;28;19955;-73
2022/09/13 04:48:33;;;;;;;;;;;23.30;66.60;;;;;;5072781;28;19999;-71
2022/09/13 04:51:06;;;;;;;;;;;23.10;67.00;;;;;;5075089;28;20384;-73
2022/09/13 04:53:33;;;;;;;;;;;22.90;67.00;;;;;;5074197;28;20384;-72
2022/09/13 04:56:00;;;;;;;;;;;22.60;66.70;;;;;;5071475;28;20027;-73
2022/09/13 04:58:27;;;;;;;;;;;22.20;68.30;;;;;;5073127;28;19924;-75
2022/09/13 05:00:55;;;;;;;;;;;22.00;68.20;;;;;;5054783;28;19951;-72
2022/09/13 05:03:22;;;;;;;;;;;22.40;68.10;;;;;;5054677;28;19909;-73
2022/09/13 05:05:49;;;;;;;;;;;22.90;67.10;;;;;;5071378;28;19917;-74
2022/09/13 05:08:15;;;;;;;;;;;23.30;67.00;;;;;;5074803;28;19923;-74
2022/09/13 05:10:42;;;;;;;;;;;24.10;65.40;;;;;;5074684;28;19916;-73
2022/09/13 05:13:09;;;;;;;;;;;24.70;64.00;;;;;;5074732;28;20330;-73
2022/09/13 05:15:35;;;;;;;;;;;25.30;64.00;;;;;;5074123;28;19912;-73
2022/09/13 05:18:02;;;;;;;;;;;25.50;64.20;;;;;;5073704;28;19920;-74
2022/09/13 05:20:29;;;;;;;;;;;25.80;62.30;;;;;;5074222;28;20246;-74
2022/09/13 05:22:56;;;;;;;;;;;25.70;61.20;;;;;;5069367;28;19920;-74
2022/09/13 05:25:22;;;;;;;;;;;25.50;62.00;;;;;;5074005;28;20364;-74
2022/09/13 05:27:49;;;;;;;;;;;25.80;61.20;;;;;;5074404;28;19958;-73
2022/09/13 05:30:15;;;;;;;;;;;25.40;61.00;;;;;;5074739;28;19916;-73
2022/09/13 05:32:42;;;;;;;;;;;24.70;61.60;;;;;;5055680;28;20421;-75
2022/09/13 05:35:09;;;;;;;;;;;23.70;63.30;;;;;;5057071;28;19912;-73
2022/09/13 05:37:35;;;;;;;;;;;23.00;65.60;;;;;;5074266;28;20361;-72
2022/09/13 05:40:02;;;;;;;;;;;23.10;65.90;;;;;;5074138;28;19966;-73
2022/09/13 05:42:29;;;;;;;;;;;23.50;65.50;;;;;;5073682;28;19924;-72
2022/09/13 05:44:56;;;;;;;;;;;24.00;64.70;;;;;;5064198;28;19921;-73
2022/09/13 05:47:22;;;;;;;;;;;24.60;64.10;;;;;;5066844;28;19924;-73
2022/09/13 05:49:49;;;;;;;;;;;25.10;62.00;;;;;;5068072;28;19920;-72
2022/09/13 05:52:16;;;;;;;;;;;25.20;60.90;;;;;;5066634;28;19928;-72
2022/09/13 05:54:42;;;;;;;;;;;25.30;60.80;;;;;;5062318;28;20007;-74
2022/09/13 05:57:09;;;;;;;;;;;25.20;60.60;;;;;;5060627;28;20369;-72
2022/09/13 05:59:36;;;;;;;;;;;25.00;60.60;;;;;;5053200;28;19925;-73
2022/09/13 06:02:02;;;;;;;;;;;25.00;60.70;;;;;;5054530;28;20277;-72
2022/09/13 06:04:29;;;;;;;;;;;24.90;61.30;;;;;;5049488;28;19966;-74
2022/09/13 06:06:56;;;;;;;;;;;24.70;61.10;;;;;;5061104;28;19920;-74
2022/09/13 06:09:22;;;;;;;;;;;24.60;62.40;;;;;;5059375;28;19917;-73
2022/09/13 06:11:49;;;;;;;;;;;24.60;62.60;;;;;;5066060;28;20380;-72
2022/09/13 06:14:15;;;;;;;;;;;24.70;62.60;;;;;;5064695;28;19959;-73
2022/09/13 06:16:42;;;;;;;;;;;24.40;62.60;;;;;;5072947;28;19912;-74
2022/09/13 06:19:09;;;;;;;;;;;24.40;62.30;;;;;;5066819;28;19921;-72
2022/09/13 06:21:35;;;;;;;;;;;24.60;62.40;;;;;;5069695;28;19924;-74
2022/09/13 06:24:03;;;;;;;;;;;24.70;61.40;;;;;;5070549;28;19912;-74
2022/09/13 06:26:30;;;;;;;;;;;24.90;61.50;;;;;;5073196;28;19948;-74
2022/09/13 06:28:57;;;;;;;;;;;24.20;62.00;;;;;;5072370;28;19917;-73
2022/09/13 06:31:25;;;;;;;;;;;23.70;62.90;;;;;;5073017;28;19916;-74
2022/09/13 06:33:56;;;;;;;;;;;23.60;63.90;;;;;;5072715;28;20285;-73
2022/09/13 06:36:23;;;;;;;;;;;23.60;63.40;;;;;;5066882;28;19912;-73
2022/09/13 06:38:50;;;;;;;;;;;23.30;63.10;;;;;;5071934;28;20003;-74
2022/09/13 06:41:17;;;;;;;;;;;23.20;64.80;;;;;;5071887;28;19944;-74
2022/09/13 06:43:44;;;;;;;;;;;23.20;64.20;;;;;;5068079;28;20007;-73
2022/09/13 06:46:12;;;;;;;;;;;23.10;65.00;;;;;;5072687;28;19908;-73
2022/09/13 06:48:40;;;;;;;;;;;22.80;65.10;;;;;;5072479;28;19991;-73
2022/09/13 06:51:09;;;;;;;;;;;22.30;66.10;;;;;;5072865;28;19960;-72
2022/09/13 06:53:36;;;;;;;;;;;21.80;67.90;;;;;;5072931;28;19908;-73
2022/09/13 06:56:06;;;;;;;;;;;21.30;67.90;;;;;;5067970;28;19917;-73
2022/09/13 06:58:33;;;;;;;;;;;20.90;69.20;;;;;;5069308;28;19947;-73
2022/09/13 07:01:11;;;;;;;;;;;20.50;69.70;;;;;;5054947;28;19944;-74
2022/09/13 07:03:39;;;;;;;;;;;19.70;72.30;;;;;;5064973;28;19951;-74
2022/09/13 07:06:09;;;;;;;;;;;19.20;71.90;;;;;;5071925;28;20367;-74
2022/09/13 07:08:37;;;;;;;;;;;18.80;72.50;;;;;;5072897;28;20541;-72
2022/09/13 07:11:04;;;;;;;;;;;18.50;75.00;;;;;;5072448;28;19923;-72
2022/09/13 07:13:30;;;;;;;;;;;18.20;74.60;;;;;;5071960;28;19916;-73
2022/09/13 07:16:00;;;;;;;;;;;18.00;75.60;;;;;;5072166;28;20341;-72
2022/09/13 07:18:26;;;;;;;;;;;17.70;76.30;;;;;;5072423;28;20400;-73
2022/09/13 07:20:59;;;;;;;;;;;17.50;77.20;;;;;;5072219;28;19912;-73
2022/09/13 07:23:25;;;;;;;;;;;17.30;77.90;;;;;;5072425;28;20292;-73
2022/09/13 07:26:00;;;;;;;;;;;17.30;77.80;;;;;;5071880;28;19913;-73
2022/09/13 07:28:29;;;;;;;;;;;17.10;78.20;;;;;;5066378;28;19919;-73
2022/09/13 07:30:57;;;;;;;;;;;16.90;79.00;;;;;;5067781;28;19952;-72
2022/09/13 07:33:27;;;;;;;;;;;16.80;79.80;;;;;;5072376;28;19924;-75
2022/09/13 07:35:58;;;;;;;;;;;16.70;80.30;;;;;;5047473;28;20851;-74
2022/09/13 07:38:25;;;;;;;;;;;16.60;81.10;;;;;;5072083;28;19954;-75
2022/09/13 07:40:54;;;;;;;;;;;16.50;81.50;;;;;;5069399;28;19909;-73
2022/09/13 07:43:21;;;;;;;;;;;16.40;82.30;;;;;;5069205;28;20353;-73
2022/09/13 07:45:48;;;;;;;;;;;16.20;81.80;;;;;;5071321;28;19953;-72
2022/09/13 07:48:14;;;;;;;;;;;16.20;82.70;;;;;;5071721;28;19908;-73
2022/09/13 07:50:41;;;;;;;;;;;16.10;82.90;;;;;;5068461;28;19915;-75
2022/09/13 07:53:08;;;;;;;;;;;16.00;84.20;;;;;;5061631;28;19917;-76
2022/09/13 07:55:35;;;;;;;;;;;15.90;84.10;;;;;;5067133;28;19913;-72
2022/09/13 07:58:01;;;;;;;;;;;15.90;84.20;;;;;;5068963;28;19939;-72
2022/09/13 08:00:28;;;;;;;;;;;15.90;84.50;;;;;;5068686;28;19920;-75
2022/09/13 08:02:55;;;;;;;;;;;15.90;85.10;;;;;;5071017;28;19912;-72
2022/09/13 08:05:21;;;;;;;;;;;15.90;84.90;;;;;;5071167;28;20369;-75
2022/09/13 08:07:48;;;;;;;;;;;15.80;85.00;;;;;;5069028;28;19926;-72
2022/09/13 08:10:14;;;;;;;;;;;15.80;85.40;;;;;;5062413;28;19952;-71
2022/09/13 08:12:41;;;;;;;;;;;15.80;85.40;;;;;;5065190;28;20011;-73
2022/09/13 08:15:08;;;;;;;;;;;15.70;85.30;;;;;;5070541;28;20007;-71
2022/09/13 08:17:35;;;;;;;;;;;15.70;85.40;;;;;;5070282;28;20294;-72
2022/09/13 08:20:01;;;;;;;;;;;15.70;85.30;;;;;;5071165;28;19920;-72
2022/09/13 08:22:28;;;;;;;;;;;15.70;85.30;;;;;;5070393;28;19999;-73
2022/09/13 08:24:55;;;;;;;;;;;15.70;85.70;;;;;;5071363;28;19913;-73
2022/09/13 08:27:21;;;;;;;;;;;15.70;85.40;;;;;;5071353;28;19923;-77
2022/09/13 08:29:48;;;;;;;;;;;15.70;86.20;;;;;;5070190;28;19980;-73
2022/09/13 08:32:14;;;;;;;;;;;15.60;85.50;;;;;;5070355;28;19927;-75
2022/09/13 08:34:41;;;;;;;;;;;15.70;86.80;;;;;;5049621;28;19965;-75
2022/09/13 08:37:07;;;;;;;;;;;15.70;85.50;;;;;;5069604;28;19913;-74
2022/09/13 08:39:34;;;;;;;;;;;15.60;85.70;;;;;;5071590;28;20140;-72
2022/09/13 08:42:06;;;;;;;;;;;15.60;86.00;;;;;;5071818;28;19920;-74
2022/09/13 08:44:34;;;;;;;;;;;15.50;86.50;;;;;;5063867;28;19912;-73
2022/09/13 08:47:11;;;;;;;;;;;15.50;86.00;;;;;;5062929;28;19991;-74
2022/09/13 08:49:45;;;;;;;;;;;15.50;85.40;;;;;;5069052;28;20394;-73
2022/09/13 08:52:15;;;;;;;;;;;15.40;85.40;;;;;;5067093;28;20369;-73
2022/09/13 08:54:42;;;;;;;;;;;15.50;84.80;;;;;;5058279;28;19913;-73
2022/09/13 08:57:08;;;;;;;;;;;15.40;84.70;;;;;;5070883;28;19909;-74
2022/09/13 08:59:53;;;;;;;;;;;15.30;85.20;;;;;;5070971;28;19921;-74
2022/09/13 09:02:38;;;;;;;;;;;15.30;85.40;;;;;;5067804;28;19913;-73
2022/09/13 09:05:09;;;;;;;;;;;15.30;86.30;;;;;;5055052;28;19920;-73
2022/09/13 09:08:04;;;;;;;;;;;15.30;85.80;;;;;;5055669;28;19966;-72
2022/09/13 09:10:31;;;;;;;;;;;15.30;85.60;;;;;;5057387;28;19928;-73
2022/09/13 09:13:07;;;;;;;;;;;15.30;86.00;;;;;;5053264;28;19947;-73
2022/09/13 09:15:41;;;;;;;;;;;15.30;86.10;;;;;;5051184;28;19912;-72
2022/09/13 09:18:18;;;;;;;;;;;15.30;86.20;;;;;;5055763;28;19919;-75
2022/09/13 09:20:46;;;;;;;;;;;15.20;86.90;;;;;;5051615;28;20000;-72
2022/09/13 09:23:15;;;;;;;;;;;15.10;87.10;;;;;;5065437;28;19920;-74
2022/09/13 09:25:42;;;;;;;;;;;15.10;87.60;;;;;;5069488;28;20410;-73
2022/09/13 09:28:16;;;;;;;;;;;15.00;87.10;;;;;;5070073;28;20015;-74
2022/09/13 09:30:47;;;;;;;;;;;15.00;87.30;;;;;;5070829;28;19913;-74
2022/09/13 09:33:37;;;;;;;;;;;15.00;87.40;;;;;;5053461;28;19916;-73
2022/09/13 09:36:03;;;;;;;;;;;15.00;87.10;;;;;;5073895;28;19962;-73
2022/09/13 09:38:36;;;;;;;;;;;15.00;87.60;;;;;;5055392;28;20317;-73
2022/09/13 09:41:12;;;;;;;;;;;14.90;87.50;;;;;;5056001;28;19912;-73
2022/09/13 09:43:51;;;;;;;;;;;15.00;87.70;;;;;;5073629;28;20344;-74
2022/09/13 09:46:20;;;;;;;;;;;14.90;87.70;;;;;;5073600;28;20004;-74
2022/09/13 09:48:55;;;;;;;;;;;15.00;88.20;;;;;;5074332;28;19960;-73
2022/09/13 09:51:24;;;;;;;;;;;14.90;87.60;;;;;;5072454;28;20528;-73
2022/09/13 09:53:54;;;;;;;;;;;14.90;87.80;;;;;;5073458;28;19916;-73
2022/09/13 09:56:23;;;;;;;;;;;14.90;87.70;;;;;;5073926;28;19936;-73
2022/09/13 09:58:50;;;;;;;;;;;14.90;87.70;;;;;;5054612;28;19962;-74
2022/09/13 10:01:16;;;;;;;;;;;14.90;88.60;;;;;;5073173;28;19913;-74
2022/09/13 10:03:49;;;;;;;;;;;14.90;88.20;;;;;;5073834;28;19909;-75
2022/09/13 10:06:19;;;;;;;;;;;14.70;87.70;;;;;;5073103;28;20441;-74
2022/09/13 10:08:55;;;;;;;;;;;14.80;87.90;;;;;;5073071;28;19955;-73
2022/09/13 10:11:21;;;;;;;;;;;14.80;88.20;;;;;;5073107;28;19931;-74
2022/09/13 10:13:58;;;;;;;;;;;14.80;88.40;;;;;;5073133;28;19923;-73
2022/09/13 10:16:27;;;;;;;;;;;14.80;88.80;;;;;;5055686;28;19930;-71
2022/09/13 10:18:54;;;;;;;;;;;14.80;88.50;;;;;;5055313;28;19912;-73
2022/09/13 10:21:24;;;;;;;;;;;14.70;88.50;;;;;;5072798;28;19917;-73
2022/09/13 10:23:52;;;;;;;;;;;14.80;89.00;;;;;;5072873;28;19958;-74
2022/09/13 10:26:25;;;;;;;;;;;14.80;88.70;;;;;;5072784;28;19908;-72
2022/09/13 10:28:52;;;;;;;;;;;14.80;87.90;;;;;;5072606;28;19908;-71
2022/09/13 10:31:19;;;;;;;;;;;14.80;88.00;;;;;;5072858;28;20376;-75
2022/09/13 10:33:49;;;;;;;;;;;14.80;88.60;;;;;;5062566;28;19912;-74
2022/09/13 10:36:27;;;;;;;;;;;14.90;88.00;;;;;;5073229;28;19912;-73
2022/09/13 10:39:02;;;;;;;;;;;14.90;88.30;;;;;;5073227;28;20394;-72
2022/09/13 10:41:33;;;;;;;;;;;14.90;87.90;;;;;;5072965;28;19912;-73
2022/09/13 10:44:01;;;;;;;;;;;15.00;88.00;;;;;;5072290;28;19928;-74
2022/09/13 10:46:32;;;;;;;;;;;15.10;87.90;;;;;;5063613;28;20319;-74
2022/09/13 10:48:59;;;;;;;;;;;15.10;87.90;;;;;;5064076;28;19913;-75
2022/09/13 10:51:25;;;;;;;;;;;15.10;88.10;;;;;;5055050;28;19912;-73
2022/09/13 10:54:10;;;;;;;;;;;15.10;88.10;;;;;;5072762;28;19916;-74
2022/09/13 10:56:37;;;;;;;;;;;15.10;87.70;;;;;;5054121;28;20578;-73
2022/09/13 10:59:21;;;;;;;;;;;15.10;88.20;;;;;;5072016;28;19920;-75
2022/09/13 11:01:53;;;;;;;;;;;15.10;88.60;;;;;;5072019;28;19955;-74
2022/09/13 11:04:49;;;;;;;;;;;15.10;87.20;;;;;;5072344;28;19913;-74
2022/09/13 11:07:34;;;;;;;;;;;15.10;86.90;;;;;;5054086;28;19951;-73
2022/09/13 11:10:14;;;;;;;;;;;15.10;87.20;;;;;;5071749;28;20340;-74
2022/09/13 11:12:46;;;;;;;;;;;15.10;87.20;;;;;;5065828;28;19917;-73
2022/09/13 11:15:21;;;;;;;;;;;15.10;87.60;;;;;;5055311;28;19913;-73
2022/09/13 11:17:48;;;;;;;;;;;15.10;87.70;;;;;;5065691;28;19912;-72
2022/09/13 11:20:26;;;;;;;;;;;15.10;88.60;;;;;;5072210;28;19916;-74
2022/09/13 11:23:10;;;;;;;;;;;15.10;88.80;;;;;;5067385;28;19920;-72
2022/09/13 11:26:03;;;;;;;;;;;15.00;88.80;;;;;;5053720;28;19987;-72
2022/09/13 11:28:48;;;;;;;;;;;14.90;88.50;;;;;;5068216;28;19944;-72
2022/09/13 11:31:20;;;;;;;;;;;14.90;89.10;;;;;;5053109;28;19913;-74
2022/09/13 11:33:53;;;;;;;;;;;14.80;89.30;;;;;;5071235;28;19917;-72
2022/09/13 11:36:26;;;;;;;;;;;14.70;89.20;;;;;;5071498;28;19909;-72
2022/09/13 11:39:01;;;;;;;;;;;14.70;89.30;;;;;;5071742;28;19934;-73
2022/09/13 11:41:48;;;;;;;;;;;14.70;89.20;;;;;;5071889;28;19995;-72
2022/09/13 11:44:33;;;;;;;;;;;14.70;89.00;;;;;;5072035;28;19912;-72
2022/09/13 11:47:06;;;;;;;;;;;14.50;89.40;;;;;;5071867;28;19916;-72
2022/09/13 11:49:51;;;;;;;;;;;14.50;89.50;;;;;;5072085;28;19978;-72
2022/09/13 11:52:58;;;;;;;;;;;14.50;90.10;;;;;;5071859;28;20377;-72
2022/09/13 11:55:25;;;;;;;;;;;14.40;90.20;;;;;;4987883;28;20008;-72
2022/09/13 11:57:52;;;;;;;;;;;14.40;90.50;;;;;;4987527;28;20478;-71
2022/09/13 12:00:19;;;;;;;;;;;14.30;90.40;;;;;;5031632;28;19947;-72
2022/09/13 12:02:57;;;;;;;;;;;14.40;90.60;;;;;;5071442;28;19912;-72
2022/09/13 12:05:25;;;;;;;;;;;14.20;91.00;;;;;;5071370;28;20376;-72
2022/09/13 12:07:57;;;;;;;;;;;14.20;90.80;;;;;;5071306;28;20440;-72
2022/09/13 12:10:26;;;;;;;;;;;14.10;91.70;;;;;;5051915;28;19971;-73
2022/09/13 12:12:54;;;;;;;;;;;14.00;91.40;;;;;;5051827;28;19970;-72
2022/09/13 12:15:21;;;;;;;;;;;14.00;91.70;;;;;;5052818;28;19923;-72
2022/09/13 12:18:07;;;;;;;;;;;13.90;91.80;;;;;;5071482;28;19930;-73
2022/09/13 12:20:39;;;;;;;;;;;13.80;91.80;;;;;;5066956;28;19947;-73
2022/09/13 12:23:11;;;;;;;;;;;13.80;91.90;;;;;;5045696;28;19916;-74
2022/09/13 12:25:43;;;;;;;;;;;13.70;92.10;;;;;;5064559;28;19920;-72
2022/09/13 12:28:17;;;;;;;;;;;13.70;92.30;;;;;;5047481;28;19908;-73
2022/09/13 12:31:18;;;;;;;;;;;13.50;92.30;;;;;;5062400;28;19912;-72
2022/09/13 12:33:45;;;;;;;;;;;13.50;92.50;;;;;;5027629;28;20445;-73
2022/09/13 12:36:11;;;;;;;;;;;13.50;92.70;;;;;;5061040;28;19909;-71
2022/09/13 12:38:58;;;;;;;;;;;13.40;92.80;;;;;;5060095;28;19966;-71
2022/09/13 12:41:34;;;;;;;;;;;13.30;92.80;;;;;;5062457;28;20441;-72
2022/09/13 12:44:16;;;;;;;;;;;13.20;93.00;;;;;;5061317;28;19958;-71
2022/09/13 12:46:49;;;;;;;;;;;13.20;92.80;;;;;;5065214;28;19928;-74
2022/09/13 12:49:44;;;;;;;;;;;13.20;92.80;;;;;;5060553;28;19912;-72
2022/09/13 12:52:21;;;;;;;;;;;13.20;92.70;;;;;;4998337;28;20473;-73
2022/09/13 12:55:06;;;;;;;;;;;13.20;92.70;;;;;;5061101;28;19909;-73
2022/09/13 12:57:39;;;;;;;;;;;13.10;92.80;;;;;;5061199;28;19939;-73
2022/09/13 13:00:21;;;;;;;;;;;13.10;92.70;;;;;;5061425;28;20414;-74
2022/09/13 13:02:55;;;;;;;;;;;13.10;92.50;;;;;;5061841;28;19916;-73
2022/09/13 13:05:21;;;;;;;;;;;13.00;92.40;;;;;;5061610;28;19917;-73
2022/09/13 13:07:52;;;;;;;;;;;13.00;92.20;;;;;;5061332;28;19934;-73
2022/09/13 13:10:30;;;;;;;;;;;13.00;92.30;;;;;;5066264;28;20424;-73
2022/09/13 13:13:09;;;;;;;;;;;13.00;92.30;;;;;;5065680;28;19917;-73
2022/09/13 13:15:35;;;;;;;;;;;13.00;92.40;;;;;;5068073;28;20326;-72
2022/09/13 13:18:22;;;;;;;;;;;13.00;92.10;;;;;;5062966;28;19909;-71
2022/09/13 13:20:51;;;;;;;;;;;13.00;92.30;;;;;;5054563;28;19908;-72
2022/09/13 13:23:18;;;;;;;;;;;13.00;92.20;;;;;;5060934;28;19997;-73
2022/09/13 13:26:04;;;;;;;;;;;13.00;92.30;;;;;;5074616;28;19912;-73
2022/09/13 13:28:43;;;;;;;;;;;12.90;92.50;;;;;;5075091;28;19909;-70
2022/09/13 13:31:30;;;;;;;;;;;12.90;92.50;;;;;;5074343;28;19928;-71
2022/09/13 13:34:09;;;;;;;;;;;12.90;92.60;;;;;;5074971;28;19995;-71
2022/09/13 13:36:41;;;;;;;;;;;12.90;92.70;;;;;;5074769;28;20003;-72
2022/09/13 13:39:23;;;;;;;;;;;12.80;92.90;;;;;;5073724;28;19917;-70
2022/09/13 13:41:53;;;;;;;;;;;12.80;92.90;;;;;;5074534;28;19963;-72
2022/09/13 13:44:20;;;;;;;;;;;12.80;92.90;;;;;;5074635;28;19958;-73
2022/09/13 13:46:47;;;;;;;;;;;12.70;93.20;;;;;;5074772;28;20345;-72
2022/09/13 13:49:35;;;;;;;;;;;12.80;93.10;;;;;;5074339;28;19908;-72
2022/09/13 13:52:24;;;;;;;;;;;12.80;93.30;;;;;;5074104;28;19917;-73
2022/09/13 13:54:56;;;;;;;;;;;12.70;93.30;;;;;;5068491;28;20448;-72
2022/09/13 13:57:25;;;;;;;;;;;12.70;93.60;;;;;;5074386;28;19909;-73
2022/09/13 14:00:14;;;;;;;;;;;12.70;93.70;;;;;;5074129;28;19920;-72
2022/09/13 14:02:53;;;;;;;;;;;12.60;93.80;;;;;;5068092;28;19912;-71
2022/09/13 14:05:26;;;;;;;;;;;12.60;93.80;;;;;;5073768;28;20472;-74
2022/09/13 14:08:01;;;;;;;;;;;12.50;93.90;;;;;;5074236;28;19909;-73
2022/09/13 14:10:51;;;;;;;;;;;12.50;94.10;;;;;;5074427;28;19908;-72
2022/09/13 14:13:18;;;;;;;;;;;12.40;94.10;;;;;;5068198;28;19972;-72
2022/09/13 14:15:52;;;;;;;;;;;12.40;94.00;;;;;;5074308;28;19913;-72
2022/09/13 14:18:57;;;;;;;;;;;12.30;94.10;;;;;;5074323;28;19912;-72
2022/09/13 14:21:28;;;;;;;;;;;12.20;94.30;;;;;;4992017;28;19910;-72
2022/09/13 14:24:15;;;;;;;;;;;12.20;94.20;;;;;;4992375;28;20041;-73
2022/09/13 14:26:42;;;;;;;;;;;12.20;94.30;;;;;;5044830;28;19955;-72
2022/09/13 14:29:09;;;;;;;;;;;12.20;94.50;;;;;;5073893;28;20378;-72
2022/09/13 14:31:36;;;;;;;;;;;12.10;94.50;;;;;;5074138;28;19978;-72
2022/09/13 14:34:03;;;;;;;;;;;12.10;94.60;;;;;;5056118;28;19935;-72
2022/09/13 14:36:29;;;;;;;;;;;12.10;94.70;;;;;;5073423;28;20008;-73
2022/09/13 14:38:57;;;;;;;;;;;12.00;94.50;;;;;;5073365;28;19970;-73
2022/09/13 14:41:32;;;;;;;;;;;12.00;94.80;;;;;;5074107;28;20023;-71